sensor_id;sensor_type;location;lat;lon;timestamp;pressure;altitude;pressure_sealevel;temperature;humidity
14232;BME280;7200;52.194;9.900;2022-08-20T00:00:26;100241.50;;;20.21;100.00
14232;BME280;7200;52.194;9.900;2022-08-20T00:03:00;100245.53;;;20.16;100.00
14232;BME280;7200;52.194;9.900;2022-08-20T00:05:32;100237.50;;;20.27;100.00
14232;BME280;7200;52.194;9.900;2022-08-20T00:07:58;100235.41;;;20.31;100.00
14232;BME280;7200;52.194;9.900;2022-08-20T00:10:25;100239.44;;;20.36;100.00
14232;BME280;7200;52.194;9.900;2022-08-20T00:12:51;100236.38;;;20.30;100.00
14232;BME280;7200;52.194;9.900;2022-08-20T00:15:21;100227.25;;;20.21;100.00
14232;BME280;7200;52.194;9.900;2022-08-20T00:17:50;100223.25;;;20.04;100.00
14232;BME280;7200;52.194;9.900;2022-08-20T00:20:17;100212.91;;;19.88;100.00
14232;BME280;7200;52.194;9.900;2022-08-20T00:22:44;100213.13;;;19.85;100.00
14232;BME280;7200;52.194;9.900;2022-08-20T00:25:10;100201.22;;;19.78;100.00
14232;BME280;7200;52.194;9.900;2022-08-20T00:27:35;100217.75;;;19.83;100.00
14232;BME280;7200;52.194;9.900;2022-08-20T00:30:02;100248.22;;;19.93;100.00
14232;BME280;7200;52.194;9.900;2022-08-20T00:32:28;100261.84;;;20.13;100.00
14232;BME280;7200;52.194;9.900;2022-08-20T00:34:54;100260.28;;;20.21;100.00
14232;BME280;7200;52.194;9.900;2022-08-20T00:37:19;100258.44;;;20.22;100.00
14232;BME280;7200;52.194;9.900;2022-08-20T00:39:44;100242.25;;;20.01;100.00
14232;BME280;7200;52.194;9.900;2022-08-20T00:42:10;100245.66;;;20.03;100.00
14232;BME280;7200;52.194;9.900;2022-08-20T00:44:35;100253.44;;;20.17;100.00
14232;BME280;7200;52.194;9.900;2022-08-20T00:47:00;100237.84;;;20.22;100.00
14232;BME280;7200;52.194;9.900;2022-08-20T00:49:28;100247.84;;;20.20;100.00
14232;BME280;7200;52.194;9.900;2022-08-20T00:52:16;100244.66;;;20.04;100.00
14232;BME280;7200;52.194;9.900;2022-08-20T00:54:51;100229.59;;;19.92;100.00
14232;BME280;7200;52.194;9.900;2022-08-20T00:57:38;100220.94;;;19.77;100.00
14232;BME280;7200;52.194;9.900;2022-08-20T01:00:10;100213.34;;;19.59;100.00
14232;BME280;7200;52.194;9.900;2022-08-20T01:02:36;100198.00;;;19.61;100.00
14232;BME280;7200;52.194;9.900;2022-08-20T01:05:03;100214.44;;;19.68;100.00
14232;BME280;7200;52.194;9.900;2022-08-20T01:07:29;100223.34;;;19.69;99.92
14232;BME280;7200;52.194;9.900;2022-08-20T01:10:09;100243.44;;;19.74;100.00
14232;BME280;7200;52.194;9.900;2022-08-20T01:12:36;100242.28;;;19.65;100.00
14232;BME280;7200;52.194;9.900;2022-08-20T01:15:03;100253.47;;;19.59;100.00
14232;BME280;7200;52.194;9.900;2022-08-20T01:17:31;100246.06;;;19.63;100.00
14232;BME280;7200;52.194;9.900;2022-08-20T01:20:10;100267.78;;;19.82;100.00
14232;BME280;7200;52.194;9.900;2022-08-20T01:26:15;100294.22;;;20.10;100.00
14232;BME280;7200;52.194;9.900;2022-08-20T01:28:44;100269.97;;;20.00;100.00
14232;BME280;7200;52.194;9.900;2022-08-20T01:31:14;100252.81;;;19.80;100.00
14232;BME280;7200;52.194;9.900;2022-08-20T01:33:40;100234.25;;;19.54;100.00
14232;BME280;7200;52.194;9.900;2022-08-20T01:36:06;100266.88;;;19.71;100.00
14232;BME280;7200;52.194;9.900;2022-08-20T01:38:32;100281.88;;;19.73;100.00
14232;BME280;7200;52.194;9.900;2022-08-20T01:43:47;100261.59;;;19.47;100.00
14232;BME280;7200;52.194;9.900;2022-08-20T01:46:14;100242.78;;;19.24;100.00
14232;BME280;7200;52.194;9.900;2022-08-20T01:48:41;100269.19;;;19.29;100.00
14232;BME280;7200;52.194;9.900;2022-08-20T01:51:14;100280.78;;;19.40;100.00
14232;BME280;7200;52.194;9.900;2022-08-20T01:53:44;100278.69;;;19.33;100.00
14232;BME280;7200;52.194;9.900;2022-08-20T01:56:14;100264.56;;;19.19;100.00
14232;BME280;7200;52.194;9.900;2022-08-20T01:58:45;100260.91;;;18.96;100.00
14232;BME280;7200;52.194;9.900;2022-08-20T02:01:22;100273.31;;;18.97;100.00
14232;BME280;7200;52.194;9.900;2022-08-20T02:03:49;100274.22;;;19.09;100.00
14232;BME280;7200;52.194;9.900;2022-08-20T02:06:15;100272.91;;;19.15;100.00
14232;BME280;7200;52.194;9.900;2022-08-20T02:08:40;100277.28;;;19.16;100.00
14232;BME280;7200;52.194;9.900;2022-08-20T02:11:06;100280.97;;;19.26;100.00
14232;BME280;7200;52.194;9.900;2022-08-20T02:13:32;100273.78;;;19.26;100.00
14232;BME280;7200;52.194;9.900;2022-08-20T02:15:58;100273.94;;;19.25;100.00
14232;BME280;7200;52.194;9.900;2022-08-20T02:18:23;100266.81;;;19.13;100.00
14232;BME280;7200;52.194;9.900;2022-08-20T02:20:49;100268.13;;;19.07;100.00
14232;BME280;7200;52.194;9.900;2022-08-20T02:23:15;100264.38;;;19.10;100.00
14232;BME280;7200;52.194;9.900;2022-08-20T02:25:43;100275.41;;;19.29;100.00
14232;BME280;7200;52.194;9.900;2022-08-20T02:28:11;100276.91;;;19.44;100.00
14232;BME280;7200;52.194;9.900;2022-08-20T02:30:40;100277.16;;;19.53;100.00
14232;BME280;7200;52.194;9.900;2022-08-20T02:33:08;100283.63;;;19.50;100.00
14232;BME280;7200;52.194;9.900;2022-08-20T02:35:34;100288.34;;;19.47;100.00
14232;BME280;7200;52.194;9.900;2022-08-20T02:38:01;100290.84;;;19.61;100.00
14232;BME280;7200;52.194;9.900;2022-08-20T02:40:28;100279.88;;;19.64;100.00
14232;BME280;7200;52.194;9.900;2022-08-20T02:42:54;100270.47;;;19.47;100.00
14232;BME280;7200;52.194;9.900;2022-08-20T02:45:20;100280.16;;;19.37;100.00
14232;BME280;7200;52.194;9.900;2022-08-20T02:47:47;100292.06;;;19.33;100.00
14232;BME280;7200;52.194;9.900;2022-08-20T02:50:16;100292.41;;;19.28;100.00
14232;BME280;7200;52.194;9.900;2022-08-20T02:52:43;100305.03;;;19.26;100.00
14232;BME280;7200;52.194;9.900;2022-08-20T02:55:10;100307.25;;;19.32;100.00
14232;BME280;7200;52.194;9.900;2022-08-20T02:57:36;100303.84;;;19.30;100.00
14232;BME280;7200;52.194;9.900;2022-08-20T03:00:08;100298.97;;;19.24;100.00
14232;BME280;7200;52.194;9.900;2022-08-20T03:02:35;100300.78;;;19.23;100.00
14232;BME280;7200;52.194;9.900;2022-08-20T03:05:00;100291.00;;;19.11;100.00
14232;BME280;7200;52.194;9.900;2022-08-20T03:07:25;100310.88;;;19.20;100.00
14232;BME280;7200;52.194;9.900;2022-08-20T03:09:51;100301.81;;;19.10;100.00
14232;BME280;7200;52.194;9.900;2022-08-20T03:12:16;100305.03;;;19.02;100.00
14232;BME280;7200;52.194;9.900;2022-08-20T03:14:42;100314.44;;;19.08;100.00
14232;BME280;7200;52.194;9.900;2022-08-20T03:17:07;100319.84;;;19.19;100.00
14232;BME280;7200;52.194;9.900;2022-08-20T03:19:33;100313.06;;;19.26;100.00
14232;BME280;7200;52.194;9.900;2022-08-20T03:21:58;100312.97;;;19.28;100.00
14232;BME280;7200;52.194;9.900;2022-08-20T03:24:23;100316.59;;;19.26;100.00
14232;BME280;7200;52.194;9.900;2022-08-20T03:26:49;100311.13;;;19.28;100.00
14232;BME280;7200;52.194;9.900;2022-08-20T03:29:14;100311.28;;;19.38;100.00
14232;BME280;7200;52.194;9.900;2022-08-20T03:31:39;100312.72;;;19.31;100.00
14232;BME280;7200;52.194;9.900;2022-08-20T03:34:05;100302.00;;;19.19;100.00
14232;BME280;7200;52.194;9.900;2022-08-20T03:36:30;100296.34;;;19.11;100.00
14232;BME280;7200;52.194;9.900;2022-08-20T03:38:59;100295.59;;;19.09;100.00
14232;BME280;7200;52.194;9.900;2022-08-20T03:41:25;100315.22;;;19.21;100.00
14232;BME280;7200;52.194;9.900;2022-08-20T03:43:51;100329.53;;;19.33;100.00
14232;BME280;7200;52.194;9.900;2022-08-20T03:46:16;100311.53;;;19.35;100.00
14232;BME280;7200;52.194;9.900;2022-08-20T03:48:41;100310.22;;;19.40;100.00
14232;BME280;7200;52.194;9.900;2022-08-20T03:51:07;100294.28;;;19.39;100.00
14232;BME280;7200;52.194;9.900;2022-08-20T03:53:32;100281.28;;;19.45;100.00
14232;BME280;7200;52.194;9.900;2022-08-20T03:55:59;100285.44;;;19.50;100.00
14232;BME280;7200;52.194;9.900;2022-08-20T03:58:26;100283.03;;;19.58;98.94
14232;BME280;7200;52.194;9.900;2022-08-20T04:00:53;100283.53;;;19.63;98.16
14232;BME280;7200;52.194;9.900;2022-08-20T04:03:20;100277.56;;;19.59;98.40
14232;BME280;7200;52.194;9.900;2022-08-20T04:05:45;100280.25;;;19.59;97.44
14232;BME280;7200;52.194;9.900;2022-08-20T04:08:23;100286.31;;;19.61;97.60
14232;BME280;7200;52.194;9.900;2022-08-20T04:10:49;100277.56;;;19.59;96.82
14232;BME280;7200;52.194;9.900;2022-08-20T04:13:17;100282.56;;;19.64;96.76
14232;BME280;7200;52.194;9.900;2022-08-20T04:15:43;100283.41;;;19.64;97.20
14232;BME280;7200;52.194;9.900;2022-08-20T04:18:10;100281.59;;;19.65;97.82
14232;BME280;7200;52.194;9.900;2022-08-20T04:20:38;100277.69;;;19.58;98.21
14232;BME280;7200;52.194;9.900;2022-08-20T04:23:04;100286.06;;;19.64;98.43
14232;BME280;7200;52.194;9.900;2022-08-20T04:25:31;100293.88;;;19.68;98.63
14232;BME280;7200;52.194;9.900;2022-08-20T04:27:58;100286.84;;;19.67;97.63
14232;BME280;7200;52.194;9.900;2022-08-20T04:30:25;100288.31;;;19.71;97.71
14232;BME280;7200;52.194;9.900;2022-08-20T04:32:50;100278.03;;;19.64;97.48
14232;BME280;7200;52.194;9.900;2022-08-20T04:35:17;100293.75;;;19.69;97.32
14232;BME280;7200;52.194;9.900;2022-08-20T04:37:45;100291.09;;;19.69;97.42
14232;BME280;7200;52.194;9.900;2022-08-20T04:40:14;100295.16;;;19.75;97.02
14232;BME280;7200;52.194;9.900;2022-08-20T04:42:58;100309.03;;;19.80;97.32
14232;BME280;7200;52.194;9.900;2022-08-20T04:45:24;100299.28;;;19.79;97.28
14232;BME280;7200;52.194;9.900;2022-08-20T04:47:50;100300.75;;;19.83;97.12
14232;BME280;7200;52.194;9.900;2022-08-20T04:50:17;100301.84;;;19.80;97.09
14232;BME280;7200;52.194;9.900;2022-08-20T04:52:43;100312.06;;;19.87;97.04
14232;BME280;7200;52.194;9.900;2022-08-20T04:55:09;100306.59;;;19.88;96.39
14232;BME280;7200;52.194;9.900;2022-08-20T04:57:35;100293.81;;;19.80;96.60
14232;BME280;7200;52.194;9.900;2022-08-20T05:00:09;100304.78;;;19.89;96.24
14232;BME280;7200;52.194;9.900;2022-08-20T05:02:36;100311.47;;;19.94;96.12
14232;BME280;7200;52.194;9.900;2022-08-20T05:05:03;100321.84;;;19.99;96.14
14232;BME280;7200;52.194;9.900;2022-08-20T05:07:29;100307.97;;;19.94;96.44
14232;BME280;7200;52.194;9.900;2022-08-20T05:09:54;100305.50;;;19.91;96.08
14232;BME280;7200;52.194;9.900;2022-08-20T05:12:19;100314.41;;;19.91;97.10
14232;BME280;7200;52.194;9.900;2022-08-20T05:14:45;100312.59;;;19.92;96.60
14232;BME280;7200;52.194;9.900;2022-08-20T05:17:11;100305.78;;;19.88;97.12
14232;BME280;7200;52.194;9.900;2022-08-20T05:19:39;100310.25;;;19.87;97.10
14232;BME280;7200;52.194;9.900;2022-08-20T05:22:05;100294.78;;;19.79;96.50
14232;BME280;7200;52.194;9.900;2022-08-20T05:24:31;100317.22;;;19.90;96.55
14232;BME280;7200;52.194;9.900;2022-08-20T05:26:58;100339.47;;;19.90;99.01
14232;BME280;7200;52.194;9.900;2022-08-20T05:29:24;100342.63;;;19.84;100.00
14232;BME280;7200;52.194;9.900;2022-08-20T05:31:49;100356.13;;;19.82;100.00
14232;BME280;7200;52.194;9.900;2022-08-20T05:34:15;100350.63;;;19.73;100.00
14232;BME280;7200;52.194;9.900;2022-08-20T05:36:45;100362.44;;;19.81;100.00
14232;BME280;7200;52.194;9.900;2022-08-20T05:39:11;100367.69;;;19.83;100.00
14232;BME280;7200;52.194;9.900;2022-08-20T05:41:37;100361.72;;;19.79;100.00
14232;BME280;7200;52.194;9.900;2022-08-20T05:44:03;100373.16;;;19.81;100.00
14232;BME280;7200;52.194;9.900;2022-08-20T05:46:30;100370.28;;;19.72;100.00
14232;BME280;7200;52.194;9.900;2022-08-20T05:48:56;100368.09;;;19.65;100.00
14232;BME280;7200;52.194;9.900;2022-08-20T05:51:21;100379.00;;;19.62;100.00
14232;BME280;7200;52.194;9.900;2022-08-20T05:53:46;100379.38;;;19.58;100.00
14232;BME280;7200;52.194;9.900;2022-08-20T05:56:12;100389.84;;;19.61;100.00
14232;BME280;7200;52.194;9.900;2022-08-20T05:58:37;100396.88;;;19.75;100.00
14232;BME280;7200;52.194;9.900;2022-08-20T06:01:03;100400.06;;;19.80;100.00
14232;BME280;7200;52.194;9.900;2022-08-20T06:03:29;100392.06;;;19.91;100.00
14232;BME280;7200;52.194;9.900;2022-08-20T06:06:12;100398.41;;;20.01;100.00
14232;BME280;7200;52.194;9.900;2022-08-20T06:08:38;100389.19;;;20.17;100.00
14232;BME280;7200;52.194;9.900;2022-08-20T06:11:04;100390.44;;;20.24;100.00
14232;BME280;7200;52.194;9.900;2022-08-20T06:13:29;100378.25;;;20.31;100.00
14232;BME280;7200;52.194;9.900;2022-08-20T06:15:55;100395.19;;;20.43;100.00
14232;BME280;7200;52.194;9.900;2022-08-20T06:18:21;100394.97;;;20.57;100.00
14232;BME280;7200;52.194;9.900;2022-08-20T06:20:46;100387.31;;;20.64;100.00
14232;BME280;7200;52.194;9.900;2022-08-20T06:23:12;100392.06;;;20.72;100.00
14232;BME280;7200;52.194;9.900;2022-08-20T06:25:37;100403.06;;;20.80;100.00
14232;BME280;7200;52.194;9.900;2022-08-20T06:28:04;100393.41;;;20.77;100.00
14232;BME280;7200;52.194;9.900;2022-08-20T06:30:30;100401.22;;;20.80;100.00
14232;BME280;7200;52.194;9.900;2022-08-20T06:32:55;100389.75;;;20.67;100.00
14232;BME280;7200;52.194;9.900;2022-08-20T06:35:21;100404.41;;;20.74;100.00
14232;BME280;7200;52.194;9.900;2022-08-20T06:37:46;100399.16;;;20.73;100.00
14232;BME280;7200;52.194;9.900;2022-08-20T06:40:16;100405.34;;;20.85;100.00
14232;BME280;7200;52.194;9.900;2022-08-20T06:42:42;100388.66;;;20.70;100.00
14232;BME280;7200;52.194;9.900;2022-08-20T06:45:11;100398.53;;;20.92;100.00
14232;BME280;7200;52.194;9.900;2022-08-20T06:47:41;100387.19;;;20.88;100.00
14232;BME280;7200;52.194;9.900;2022-08-20T06:50:15;100407.19;;;20.95;100.00
14232;BME280;7200;52.194;9.900;2022-08-20T06:52:41;100402.53;;;20.97;100.00
14232;BME280;7200;52.194;9.900;2022-08-20T06:55:09;100408.75;;;21.09;100.00
14232;BME280;7200;52.194;9.900;2022-08-20T06:57:36;100397.38;;;21.17;100.00
14232;BME280;7200;52.194;9.900;2022-08-20T07:00:13;100404.78;;;21.36;100.00
14232;BME280;7200;52.194;9.900;2022-08-20T07:02:39;100404.06;;;21.45;100.00
14232;BME280;7200;52.194;9.900;2022-08-20T07:05:06;100392.34;;;21.35;100.00
14232;BME280;7200;52.194;9.900;2022-08-20T07:07:32;100407.22;;;21.39;100.00
14232;BME280;7200;52.194;9.900;2022-08-20T07:10:10;100399.78;;;21.31;100.00
14232;BME280;7200;52.194;9.900;2022-08-20T07:12:35;100395.34;;;21.42;100.00
14232;BME280;7200;52.194;9.900;2022-08-20T07:15:05;100410.09;;;21.58;100.00
14232;BME280;7200;52.194;9.900;2022-08-20T07:17:31;100410.69;;;21.62;100.00
14232;BME280;7200;52.194;9.900;2022-08-20T07:19:56;100425.63;;;21.87;100.00
14232;BME280;7200;52.194;9.900;2022-08-20T07:22:22;100442.38;;;22.12;100.00
14232;BME280;7200;52.194;9.900;2022-08-20T07:24:49;100440.16;;;22.38;100.00
14232;BME280;7200;52.194;9.900;2022-08-20T07:27:19;100437.75;;;22.66;100.00
14232;BME280;7200;52.194;9.900;2022-08-20T07:29:45;100427.91;;;22.76;100.00
14232;BME280;7200;52.194;9.900;2022-08-20T07:32:28;100409.53;;;22.81;98.70
14232;BME280;7200;52.194;9.900;2022-08-20T07:35:06;100400.25;;;22.64;99.77
14232;BME280;7200;52.194;9.900;2022-08-20T07:37:52;100389.88;;;22.29;100.00
14232;BME280;7200;52.194;9.900;2022-08-20T07:40:24;100395.19;;;22.19;100.00
14232;BME280;7200;52.194;9.900;2022-08-20T07:42:52;100401.59;;;22.28;100.00
14232;BME280;7200;52.194;9.900;2022-08-20T07:45:18;100405.94;;;22.19;100.00
14232;BME280;7200;52.194;9.900;2022-08-20T07:47:44;100399.56;;;21.99;100.00
14232;BME280;7200;52.194;9.900;2022-08-20T07:50:13;100414.97;;;21.97;100.00
14232;BME280;7200;52.194;9.900;2022-08-20T07:52:39;100437.78;;;22.24;100.00
14232;BME280;7200;52.194;9.900;2022-08-20T07:55:09;100441.81;;;22.60;100.00
14232;BME280;7200;52.194;9.900;2022-08-20T07:57:36;100442.69;;;22.91;100.00
14232;BME280;7200;52.194;9.900;2022-08-20T08:00:04;100399.03;;;22.78;99.28
14232;BME280;7200;52.194;9.900;2022-08-20T08:02:29;100397.25;;;22.58;99.71
14232;BME280;7200;52.194;9.900;2022-08-20T08:04:55;100420.47;;;22.59;100.00
14232;BME280;7200;52.194;9.900;2022-08-20T08:07:21;100412.94;;;22.83;99.40
14232;BME280;7200;52.194;9.900;2022-08-20T08:09:48;100413.69;;;22.95;98.19
14232;BME280;7200;52.194;9.900;2022-08-20T08:12:14;100409.81;;;22.88;98.31
14232;BME280;7200;52.194;9.900;2022-08-20T08:14:41;100409.94;;;22.77;100.00
14232;BME280;7200;52.194;9.900;2022-08-20T08:17:10;100448.63;;;23.26;100.00
14232;BME280;7200;52.194;9.900;2022-08-20T08:19:40;100432.81;;;23.52;98.56
14232;BME280;7200;52.194;9.900;2022-08-20T08:22:08;100401.31;;;23.23;96.68
14232;BME280;7200;52.194;9.900;2022-08-20T08:24:39;100420.63;;;23.38;97.43
14232;BME280;7200;52.194;9.900;2022-08-20T08:27:05;100434.94;;;23.48;97.73
14232;BME280;7200;52.194;9.900;2022-08-20T08:29:33;100439.22;;;23.61;95.74
14232;BME280;7200;52.194;9.900;2022-08-20T08:32:00;100412.66;;;23.27;97.63
14232;BME280;7200;52.194;9.900;2022-08-20T08:34:26;100435.78;;;23.39;98.82
14232;BME280;7200;52.194;9.900;2022-08-20T08:36:51;100430.66;;;23.26;99.82
14232;BME280;7200;52.194;9.900;2022-08-20T08:39:18;100435.78;;;23.39;98.87
14232;BME280;7200;52.194;9.900;2022-08-20T08:41:48;100457.66;;;23.75;97.75
14232;BME280;7200;52.194;9.900;2022-08-20T08:44:18;100433.13;;;23.78;95.27
14232;BME280;7200;52.194;9.900;2022-08-20T08:46:50;100455.44;;;24.09;94.67
14232;BME280;7200;52.194;9.900;2022-08-20T08:49:19;100439.25;;;24.09;93.07
14232;BME280;7200;52.194;9.900;2022-08-20T08:51:50;100471.13;;;24.43;93.41
14232;BME280;7200;52.194;9.900;2022-08-20T08:54:22;100459.31;;;24.74;91.69
14232;BME280;7200;52.194;9.900;2022-08-20T08:56:50;100451.69;;;24.97;89.36
14232;BME280;7200;52.194;9.900;2022-08-20T08:59:15;100412.66;;;24.44;91.10
14232;BME280;7200;52.194;9.900;2022-08-20T09:01:45;100417.22;;;24.24;92.87
14232;BME280;7200;52.194;9.900;2022-08-20T09:04:13;100416.28;;;23.96;94.04
14232;BME280;7200;52.194;9.900;2022-08-20T09:06:39;100439.81;;;24.23;93.61
14232;BME280;7200;52.194;9.900;2022-08-20T09:09:06;100406.59;;;24.13;92.72
14232;BME280;7200;52.194;9.900;2022-08-20T09:11:49;100410.50;;;23.90;96.58
14232;BME280;7200;52.194;9.900;2022-08-20T09:14:14;100463.63;;;24.47;95.80
14232;BME280;7200;52.194;9.900;2022-08-20T09:16:39;100456.66;;;24.92;92.40
14232;BME280;7200;52.194;9.900;2022-08-20T09:19:05;100436.38;;;24.87;91.96
14232;BME280;7200;52.194;9.900;2022-08-20T09:21:30;100440.59;;;25.00;92.25
14232;BME280;7200;52.194;9.900;2022-08-20T09:23:55;100419.59;;;24.94;92.20
14232;BME280;7200;52.194;9.900;2022-08-20T09:26:21;100420.88;;;24.90;91.89
14232;BME280;7200;52.194;9.900;2022-08-20T09:28:46;100407.59;;;24.78;91.63
14232;BME280;7200;52.194;9.900;2022-08-20T09:31:11;100426.06;;;24.83;92.33
14232;BME280;7200;52.194;9.900;2022-08-20T09:33:36;100408.38;;;24.61;92.87
14232;BME280;7200;52.194;9.900;2022-08-20T09:36:02;100405.34;;;24.74;92.09
14232;BME280;7200;52.194;9.900;2022-08-20T09:38:28;100427.88;;;24.82;94.08
14232;BME280;7200;52.194;9.900;2022-08-20T09:40:53;100395.44;;;24.64;92.39
14232;BME280;7200;52.194;9.900;2022-08-20T09:43:19;100381.41;;;24.61;91.50
14232;BME280;7200;52.194;9.900;2022-08-20T09:45:44;100364.22;;;24.05;92.87
14232;BME280;7200;52.194;9.900;2022-08-20T09:48:09;100394.28;;;24.10;94.77
14232;BME280;7200;52.194;9.900;2022-08-20T09:50:35;100371.88;;;24.09;93.95
14232;BME280;7200;52.194;9.900;2022-08-20T09:53:03;100388.06;;;24.09;94.86
14232;BME280;7200;52.194;9.900;2022-08-20T09:55:36;100366.81;;;23.87;94.69
14232;BME280;7200;52.194;9.900;2022-08-20T09:58:12;100362.38;;;23.76;94.67
14232;BME280;7200;52.194;9.900;2022-08-20T10:00:40;100388.91;;;23.81;95.72
14232;BME280;7200;52.194;9.900;2022-08-20T10:03:05;100367.47;;;23.69;95.30
14232;BME280;7200;52.194;9.900;2022-08-20T10:05:30;100388.22;;;23.79;95.51
14232;BME280;7200;52.194;9.900;2022-08-20T10:07:56;100388.91;;;23.81;95.32
14232;BME280;7200;52.194;9.900;2022-08-20T10:10:21;100401.81;;;23.97;95.47
14232;BME280;7200;52.194;9.900;2022-08-20T10:12:47;100379.44;;;23.96;93.19
14232;BME280;7200;52.194;9.900;2022-08-20T10:15:12;100375.56;;;23.69;95.04
14232;BME280;7200;52.194;9.900;2022-08-20T10:17:40;100401.13;;;23.85;95.88
14232;BME280;7200;52.194;9.900;2022-08-20T10:20:06;100405.94;;;23.91;94.83
14232;BME280;7200;52.194;9.900;2022-08-20T10:22:33;100396.97;;;23.71;96.63
14232;BME280;7200;52.194;9.900;2022-08-20T10:24:58;100391.72;;;23.60;96.68
14232;BME280;7200;52.194;9.900;2022-08-20T10:27:23;100391.31;;;23.64;95.93
14232;BME280;7200;52.194;9.900;2022-08-20T10:29:49;100412.75;;;23.85;95.51
14232;BME280;7200;52.194;9.900;2022-08-20T10:32:15;100413.91;;;23.83;95.15
14232;BME280;7200;52.194;9.900;2022-08-20T10:34:42;100408.50;;;23.93;94.13
14232;BME280;7200;52.194;9.900;2022-08-20T10:37:12;100383.63;;;23.69;94.30
14232;BME280;7200;52.194;9.900;2022-08-20T10:39:38;100424.38;;;24.05;95.13
14232;BME280;7200;52.194;9.900;2022-08-20T10:42:03;100430.97;;;24.40;93.65
14232;BME280;7200;52.194;9.900;2022-08-20T10:44:29;100430.19;;;24.67;92.00
14232;BME280;7200;52.194;9.900;2022-08-20T10:46:54;100430.69;;;24.91;90.27
14232;BME280;7200;52.194;9.900;2022-08-20T10:49:20;100430.16;;;25.15;88.45
14232;BME280;7200;52.194;9.900;2022-08-20T10:51:45;100439.13;;;25.43;86.80
14232;BME280;7200;52.194;9.900;2022-08-20T10:54:10;100428.81;;;25.47;86.36
14232;BME280;7200;52.194;9.900;2022-08-20T10:56:35;100384.63;;;25.20;86.32
14232;BME280;7200;52.194;9.900;2022-08-20T10:59:01;100383.75;;;25.01;86.85
14232;BME280;7200;52.194;9.900;2022-08-20T11:01:26;100391.47;;;24.96;89.32
14232;BME280;7200;52.194;9.900;2022-08-20T11:03:51;100361.91;;;24.67;87.35
14232;BME280;7200;52.194;9.900;2022-08-20T11:06:17;100373.53;;;24.77;87.49
14232;BME280;7200;52.194;9.900;2022-08-20T11:08:42;100403.31;;;25.13;87.50
14232;BME280;7200;52.194;9.900;2022-08-20T11:11:07;100385.91;;;24.98;86.86
14232;BME280;7200;52.194;9.900;2022-08-20T11:13:33;100374.81;;;25.01;84.96
14232;BME280;7200;52.194;9.900;2022-08-20T11:16:00;100383.09;;;24.90;86.25
14232;BME280;7200;52.194;9.900;2022-08-20T11:18:26;100378.41;;;24.92;85.45
14232;BME280;7200;52.194;9.900;2022-08-20T11:20:51;100375.66;;;24.74;87.02
14232;BME280;7200;52.194;9.900;2022-08-20T11:23:17;100372.63;;;24.49;87.91
14232;BME280;7200;52.194;9.900;2022-08-20T11:25:42;100419.41;;;23.91;99.42
14232;BME280;7200;52.194;9.900;2022-08-20T11:28:07;100414.06;;;22.90;100.00
14232;BME280;7200;52.194;9.900;2022-08-20T11:30:34;100425.97;;;22.15;100.00
14232;BME280;7200;52.194;9.900;2022-08-20T11:33:00;100455.47;;;21.73;100.00
14232;BME280;7200;52.194;9.900;2022-08-20T11:35:28;100471.66;;;21.28;100.00
14232;BME280;7200;52.194;9.900;2022-08-20T11:37:55;100501.56;;;21.00;100.00
14232;BME280;7200;52.194;9.900;2022-08-20T11:40:22;100501.88;;;20.38;100.00
14232;BME280;7200;52.194;9.900;2022-08-20T11:42:47;100504.69;;;20.01;100.00
14232;BME280;7200;52.194;9.900;2022-08-20T11:45:13;100513.00;;;20.09;100.00
14232;BME280;7200;52.194;9.900;2022-08-20T11:47:39;100508.69;;;19.95;100.00
14232;BME280;7200;52.194;9.900;2022-08-20T11:50:09;100511.56;;;19.92;100.00
14232;BME280;7200;52.194;9.900;2022-08-20T11:52:35;100522.22;;;20.05;100.00
14232;BME280;7200;52.194;9.900;2022-08-20T11:55:01;100515.41;;;20.01;100.00
14232;BME280;7200;52.194;9.900;2022-08-20T11:57:30;100518.81;;;20.03;100.00
14232;BME280;7200;52.194;9.900;2022-08-20T11:59:57;100516.13;;;20.03;100.00
14232;BME280;7200;52.194;9.900;2022-08-20T12:02:24;100518.34;;;20.09;100.00
14232;BME280;7200;52.194;9.900;2022-08-20T12:04:50;100522.59;;;20.00;100.00
14232;BME280;7200;52.194;9.900;2022-08-20T12:07:19;100508.66;;;20.19;100.00
14232;BME280;7200;52.194;9.900;2022-08-20T12:09:44;100519.69;;;20.39;100.00
14232;BME280;7200;52.194;9.900;2022-08-20T12:12:11;100530.00;;;20.68;100.00
14232;BME280;7200;52.194;9.900;2022-08-20T12:14:36;100523.63;;;20.57;100.00
14232;BME280;7200;52.194;9.900;2022-08-20T12:17:12;100532.34;;;20.72;100.00
14232;BME280;7200;52.194;9.900;2022-08-20T12:19:39;100534.56;;;20.78;100.00
14232;BME280;7200;52.194;9.900;2022-08-20T12:22:05;100530.69;;;21.05;100.00
14232;BME280;7200;52.194;9.900;2022-08-20T12:24:30;100532.63;;;21.26;100.00
14232;BME280;7200;52.194;9.900;2022-08-20T12:27:10;100537.28;;;21.57;100.00
14232;BME280;7200;52.194;9.900;2022-08-20T12:29:38;100526.00;;;21.75;100.00
14232;BME280;7200;52.194;9.900;2022-08-20T12:32:04;100523.91;;;21.90;100.00
14232;BME280;7200;52.194;9.900;2022-08-20T12:34:32;100537.13;;;22.14;100.00
14232;BME280;7200;52.194;9.900;2022-08-20T12:37:02;100542.09;;;22.30;100.00
14232;BME280;7200;52.194;9.900;2022-08-20T12:39:30;100527.50;;;22.44;100.00
14232;BME280;7200;52.194;9.900;2022-08-20T12:41:57;100532.28;;;22.61;100.00
14232;BME280;7200;52.194;9.900;2022-08-20T12:44:23;100540.22;;;22.84;100.00
14232;BME280;7200;52.194;9.900;2022-08-20T12:46:48;100522.50;;;22.81;100.00
14232;BME280;7200;52.194;9.900;2022-08-20T12:49:13;100521.16;;;22.97;100.00
14232;BME280;7200;52.194;9.900;2022-08-20T12:51:38;100522.88;;;22.98;100.00
14232;BME280;7200;52.194;9.900;2022-08-20T12:54:04;100490.16;;;22.71;100.00
14232;BME280;7200;52.194;9.900;2022-08-20T12:56:29;100519.69;;;23.04;100.00
14232;BME280;7200;52.194;9.900;2022-08-20T12:58:54;100528.13;;;23.30;100.00
14232;BME280;7200;52.194;9.900;2022-08-20T13:01:20;100491.72;;;23.36;100.00